Time;durP1;ratioP1;P1;durP2;ratioP2;P2;SDS_P1;SDS_P2;PMS_P1;PMS_P2;Temp;Humidity;BMP_temperature;BMP_pressure;BME280_temperature;BME280_humidity;BME280_pressure;Samples;Min_cycle;Max_cycle;Signal;HPM_P1;HPM_P2
2023/10/01 00:03:31;;;;;;;7.8;3.1;;;;;;;9.93;90.92;;;;;
2023/10/01 00:13:31;;;;;;;6.5;3.1;;;;;;;9.85;91.3;;;;;
2023/10/01 00:24:33;;;;;;;6.5;3.1;;;;;;;9.68;91.07;;;;;
2023/10/01 00:35:31;;;;;;;6.5;3.1;;;;;;;9.48;90.51;;;;;
2023/10/01 00:46:32;;;;;;;7.4;3.1;;;;;;;9.32;91.1;;;;;
2023/10/01 00:56:31;;;;;;;7.4;3.1;;;;;;;9.25;91.65;;;;;
2023/10/01 01:07:32;;;;;;;6.4;2.9;;;;;;;9.19;91.95;;;;;
2023/10/01 01:17:31;;;;;;;6.4;2.9;;;;;;;9.06;91.64;;;;;
2023/10/01 01:27:31;;;;;;;6.4;2.9;;;;;;;8.94;91.79;;;;;
2023/10/01 01:37:46;;;;;;;6;2.9;;;;;;;8.84;91.73;;;;;
2023/10/01 01:48:33;;;;;;;6;2.9;;;;;;;8.65;92;;;;;
2023/10/01 01:58:32;;;;;;;6;2.9;;;;;;;8.56;92.17;;;;;
2023/10/01 02:09:31;;;;;;;6.3;3.4;;;;;;;8.53;92.62;;;;;
2023/10/01 02:20:33;;;;;;;6.3;3.4;;;;;;;8.43;92.21;;;;;
2023/10/01 02:31:34;;;;;;;6.3;3.4;;;;;;;8.31;92.08;;;;;
2023/10/01 02:42:32;;;;;;;6.6;3.1;;;;;;;8.31;92.4;;;;;
2023/10/01 02:52:36;;;;;;;6.6;3.1;;;;;;;8.45;92.73;;;;;
2023/10/01 03:02:33;;;;;;;6.6;3.1;;;;;;;8.59;92.7;;;;;
2023/10/01 03:12:35;;;;;;;6.3;3.1;;;;;;;8.73;92.47;;;;;
2023/10/01 03:22:33;;;;;;;6.3;3.1;;;;;;;8.81;92.62;;;;;
2023/10/01 03:32:33;;;;;;;6.3;3.1;;;;;;;9.01;92.74;;;;;
2023/10/01 03:43:34;;;;;;;5.6;2.6;;;;;;;9.17;92.58;;;;;
2023/10/01 03:54:52;;;;;;;5.6;2.6;;;;;;;9.35;92.33;;;;;
2023/10/01 04:05:34;;;;;;;5.6;2.6;;;;;;;9.46;92.27;;;;;
2023/10/01 04:16:34;;;;;;;6.8;2.9;;;;;;;9.61;92.32;;;;;
2023/10/01 04:26:35;;;;;;;6.8;2.9;;;;;;;9.78;92.22;;;;;
2023/10/01 04:37:37;;;;;;;5.6;2.7;;;;;;;9.88;92.15;;;;;
2023/10/01 04:48:33;;;;;;;5.6;2.7;;;;;;;9.98;92.09;;;;;
2023/10/01 04:58:36;;;;;;;5.6;2.7;;;;;;;10.11;91.9;;;;;
2023/10/01 05:09:33;;;;;;;8.2;3.5;;;;;;;10.25;91.79;;;;;
2023/10/01 05:20:32;;;;;;;8.2;3.5;;;;;;;10.42;91.81;;;;;
2023/10/01 05:30:35;;;;;;;8.2;3.5;;;;;;;10.48;91.59;;;;;
2023/10/01 05:41:32;;;;;;;7.7;3.2;;;;;;;10.55;91.59;;;;;
2023/10/01 05:52:32;;;;;;;7.7;3.2;;;;;;;10.78;91.2;;;;;
2023/10/01 06:02:41;;;;;;;7.7;3.2;;;;;;;10.89;90.77;;;;;
2023/10/01 06:12:47;;;;;;;7.2;3.4;;;;;;;11.07;91.02;;;;;
2023/10/01 06:23:33;;;;;;;7.2;3.4;;;;;;;11.24;90.44;;;;;
2023/10/01 06:33:36;;;;;;;7.2;3.4;;;;;;;11.44;91.28;;;;;
2023/10/01 06:43:43;;;;;;;7.4;3.2;;;;;;;11.54;89.86;;;;;
2023/10/01 06:53:43;;;;;;;7.4;3.2;;;;;;;11.87;90.76;;;;;
2023/10/01 07:03:32;;;;;;;7.4;3.2;;;;;;;12.1;89.7;;;;;
2023/10/01 07:13:33;;;;;;;7.7;3.8;;;;;;;12.31;89.37;;;;;
2023/10/01 07:23:32;;;;;;;7.7;3.8;;;;;;;12.77;88.93;;;;;
2023/10/01 07:33:33;;;;;;;7.7;3.8;;;;;;;13.22;88.27;;;;;
2023/10/01 07:44:33;;;;;;;6.9;3.8;;;;;;;13.6;87.55;;;;;
2023/10/01 07:54:33;;;;;;;6.9;3.8;;;;;;;13.72;86.58;;;;;
2023/10/01 08:05:38;;;;;;;7.2;3.8;;;;;;;14.02;84.96;;;;;
2023/10/01 08:15:38;;;;;;;7.2;3.8;;;;;;;14.24;84.78;;;;;
2023/10/01 08:25:32;;;;;;;7.2;3.8;;;;;;;14.66;84.39;;;;;
2023/10/01 08:36:36;;;;;;;8.7;4.9;;;;;;;15.15;82.73;;;;;
2023/10/01 08:46:39;;;;;;;8.7;4.9;;;;;;;15.12;80.81;;;;;
2023/10/01 08:56:32;;;;;;;8.7;4.9;;;;;;;15.42;80.28;;;;;
2023/10/01 09:06:33;;;;;;;10.6;4.9;;;;;;;15.47;79.17;;;;;
2023/10/01 09:16:32;;;;;;;10.6;4.9;;;;;;;15.66;79.83;;;;;
2023/10/01 09:27:33;;;;;;;10.6;4.9;;;;;;;15.76;77.99;;;;;
2023/10/01 09:37:33;;;;;;;13.4;8.4;;;;;;;16.43;77.83;;;;;
2023/10/01 09:48:33;;;;;;;13.4;8.4;;;;;;;16.95;75.57;;;;;
2023/10/01 09:59:39;;;;;;;13.4;8.4;;;;;;;17.6;71.8;;;;;
2023/10/01 10:09:32;;;;;;;15.3;6.6;;;;;;;17.59;71.96;;;;;
2023/10/01 10:19:47;;;;;;;15.3;6.6;;;;;;;17.66;72.84;;;;;
2023/10/01 10:29:33;;;;;;;15.3;6.6;;;;;;;17.85;71.21;;;;;
2023/10/01 10:39:39;;;;;;;10.3;5.1;;;;;;;17.9;73.26;;;;;
2023/10/01 10:49:33;;;;;;;10.3;5.1;;;;;;;18.06;71.2;;;;;
2023/10/01 11:00:39;;;;;;;10.3;5.1;;;;;;;18.32;69.4;;;;;
2023/10/01 11:11:39;;;;;;;8;4.8;;;;;;;18.19;68.46;;;;;
2023/10/01 11:21:32;;;;;;;8;4.8;;;;;;;18.74;68.4;;;;;
2023/10/01 11:31:36;;;;;;;8;4.8;;;;;;;18.27;67.35;;;;;
2023/10/01 11:42:35;;;;;;;6.8;4.1;;;;;;;18.12;66.82;;;;;
2023/10/01 11:53:34;;;;;;;6.8;4.1;;;;;;;18.06;66.41;;;;;
2023/10/01 12:03:33;;;;;;;6.8;4.1;;;;;;;18.09;64.6;;;;;
2023/10/01 12:14:51;;;;;;;8.4;3.7;;;;;;;18.24;66.11;;;;;
2023/10/01 12:24:39;;;;;;;8.4;3.7;;;;;;;18.22;65.07;;;;;
2023/10/01 12:34:34;;;;;;;8.4;3.7;;;;;;;18.08;63.91;;;;;
2023/10/01 12:45:33;;;;;;;7.5;3.4;;;;;;;18.23;63.91;;;;;
2023/10/01 12:57:33;;;;;;;7.5;3.4;;;;;;;18.36;62.81;;;;;
2023/10/01 13:07:35;;;;;;;11.6;4.3;;;;;;;18.22;63.68;;;;;
2023/10/01 13:17:38;;;;;;;11.6;4.3;;;;;;;18.27;63.78;;;;;
2023/10/01 13:28:43;;;;;;;11.6;4.3;;;;;;;18.34;63.66;;;;;
2023/10/01 13:40:10;;;;;;;7.9;3.7;;;;;;;18.56;62.88;;;;;
2023/10/01 14:10:38;;;;;;;9.2;4.4;;;;;;;19.26;63.04;;;;;
2023/10/01 14:20:48;;;;;;;9.2;4.4;;;;;;;19.11;60.72;;;;;
2023/10/01 14:30:33;;;;;;;9.2;4.4;;;;;;;18.54;60.9;;;;;
2023/10/01 14:41:38;;;;;;;7.7;3.7;;;;;;;18.34;62.88;;;;;
2023/10/01 14:51:33;;;;;;;7.7;3.7;;;;;;;18;63.66;;;;;
2023/10/01 15:02:36;;;;;;;7.7;3.7;;;;;;;17.68;66.38;;;;;
2023/10/01 15:13:34;;;;;;;9.9;4.5;;;;;;;17.41;66.7;;;;;
2023/10/01 15:23:33;;;;;;;9.9;4.5;;;;;;;17.49;66.21;;;;;
2023/10/01 15:34:38;;;;;;;9.9;4.5;;;;;;;17.45;67.23;;;;;
2023/10/01 15:44:43;;;;;;;7.8;3.8;;;;;;;16.99;68.04;;;;;
2023/10/01 15:55:34;;;;;;;7.8;3.8;;;;;;;16.33;70.9;;;;;
2023/10/01 16:05:39;;;;;;;7.8;3.8;;;;;;;15.74;72.17;;;;;
2023/10/01 16:16:33;;;;;;;7.7;3.3;;;;;;;15.15;74.48;;;;;
2023/10/01 16:26:33;;;;;;;7.7;3.3;;;;;;;14.66;76.02;;;;;
2023/10/01 16:37:39;;;;;;;9;4.1;;;;;;;14.16;78.86;;;;;
2023/10/01 16:48:33;;;;;;;9;4.1;;;;;;;13.88;79.35;;;;;
2023/10/01 16:58:33;;;;;;;9;4.1;;;;;;;13.65;79.63;;;;;
2023/10/01 17:09:33;;;;;;;8.2;3;;;;;;;13.46;80.6;;;;;
2023/10/01 17:19:33;;;;;;;8.2;3;;;;;;;13.4;80.36;;;;;
2023/10/01 17:30:33;;;;;;;8.2;3;;;;;;;13.34;80.47;;;;;
2023/10/01 17:41:33;;;;;;;7.2;2.7;;;;;;;13.18;80.59;;;;;
2023/10/01 17:51:33;;;;;;;7.2;2.7;;;;;;;13.06;81.66;;;;;
2023/10/01 18:01:33;;;;;;;7.2;2.7;;;;;;;12.97;82.46;;;;;
2023/10/01 18:12:33;;;;;;;5.7;2;;;;;;;12.81;83.55;;;;;
2023/10/01 18:22:33;;;;;;;5.7;2;;;;;;;12.66;85.17;;;;;
2023/10/01 18:33:35;;;;;;;5.7;2;;;;;;;12.62;85.37;;;;;
2023/10/01 18:43:33;;;;;;;6.1;2.9;;;;;;;12.65;84.05;;;;;
2023/10/01 18:54:33;;;;;;;6.1;2.9;;;;;;;12.5;83.87;;;;;
2023/10/01 19:04:33;;;;;;;6.1;2.9;;;;;;;12.25;83.87;;;;;
2023/10/01 19:15:33;;;;;;;6.9;3.4;;;;;;;11.98;83.96;;;;;
2023/10/01 19:25:33;;;;;;;6.9;3.4;;;;;;;11.74;84.42;;;;;
2023/10/01 19:36:33;;;;;;;8.5;4.6;;;;;;;11.46;85.15;;;;;
2023/10/01 19:46:33;;;;;;;8.5;4.6;;;;;;;11.21;85.77;;;;;
2023/10/01 19:57:38;;;;;;;8.5;4.6;;;;;;;10.97;86.3;;;;;
2023/10/01 20:08:34;;;;;;;8.5;3.2;;;;;;;10.76;86.13;;;;;
2023/10/01 20:19:33;;;;;;;8.5;3.2;;;;;;;10.56;86.68;;;;;
2023/10/01 20:30:34;;;;;;;8.5;3.2;;;;;;;10.41;86.87;;;;;
2023/10/01 20:41:33;;;;;;;6.9;3.2;;;;;;;10.25;87.15;;;;;
2023/10/01 20:51:33;;;;;;;6.9;3.2;;;;;;;10.12;87.4;;;;;
2023/10/01 21:02:34;;;;;;;6.9;3.2;;;;;;;10;87.93;;;;;
2023/10/01 21:12:33;;;;;;;6.7;2.6;;;;;;;10.01;88.32;;;;;
2023/10/01 21:22:33;;;;;;;6.7;2.6;;;;;;;10.06;89.28;;;;;
2023/10/01 21:33:33;;;;;;;6.7;2.6;;;;;;;10.25;89.43;;;;;
2023/10/01 21:43:34;;;;;;;5.9;2.7;;;;;;;10.37;89.3;;;;;
2023/10/01 21:53:34;;;;;;;5.9;2.7;;;;;;;10.42;89.19;;;;;
2023/10/01 22:03:33;;;;;;;5.9;2.7;;;;;;;10.37;88.5;;;;;
2023/10/01 22:14:37;;;;;;;5;2.4;;;;;;;10.24;88.31;;;;;
2023/10/01 22:25:33;;;;;;;5;2.4;;;;;;;10.17;88.09;;;;;
2023/10/01 22:35:34;;;;;;;5.2;2.1;;;;;;;10.01;87.95;;;;;
2023/10/01 22:45:39;;;;;;;5.2;2.1;;;;;;;9.87;88.2;;;;;
2023/10/01 22:55:33;;;;;;;5.2;2.1;;;;;;;9.79;88.46;;;;;
2023/10/01 23:05:38;;;;;;;5.8;2.4;;;;;;;9.88;88.89;;;;;
2023/10/01 23:15:39;;;;;;;5.8;2.4;;;;;;;10.08;89.16;;;;;
2023/10/01 23:26:33;;;;;;;5.8;2.4;;;;;;;10.33;89.71;;;;;
2023/10/01 23:37:37;;;;;;;4.6;2.3;;;;;;;10.57;89.64;;;;;
2023/10/01 23:48:33;;;;;;;4.6;2.3;;;;;;;10.77;89.62;;;;;
2023/10/01 23:59:36;;;;;;;4.6;2.3;;;;;;;10.93;89.57;;;;;
